Time;durP1;ratioP1;P1;durP2;ratioP2;P2;SDS_P1;SDS_P2;PMS_P1;PMS_P2;Temp;Humidity;BMP_temperature;BMP_pressure;BME280_temperature;BME280_humidity;BME280_pressure;Samples;Min_cycle;Max_cycle;Signal;HPM_P1;HPM_P2
2022/03/02 00:00:53;;;;;;;;;;;18.30;47.00;;;;;;5026775;28;19913;-66
2022/03/02 00:03:19;;;;;;;;;;;18.30;47.00;;;;;;5031520;28;19921;-60
2022/03/02 00:05:44;;;;;;;;;;;18.40;47.10;;;;;;5024565;28;20498;-66
2022/03/02 00:08:10;;;;;;;;;;;18.30;46.90;;;;;;5012685;28;19960;-65
2022/03/02 00:10:35;;;;;;;;;;;18.30;47.00;;;;;;5027598;28;19921;-67
2022/03/02 00:13:01;;;;;;;;;;;18.30;47.10;;;;;;5031300;28;19913;-62
2022/03/02 00:15:26;;;;;;;;;;;18.20;47.10;;;;;;5029448;28;19913;-66
2022/03/02 00:17:52;;;;;;;;;;;18.30;47.00;;;;;;5032554;28;19918;-67
2022/03/02 00:20:17;;;;;;;;;;;18.20;47.00;;;;;;5029849;28;20707;-63
2022/03/02 00:22:43;;;;;;;;;;;18.20;47.00;;;;;;4996800;28;19921;-67
2022/03/02 00:25:08;;;;;;;;;;;18.20;47.10;;;;;;5028810;28;20028;-63
2022/03/02 00:27:34;;;;;;;;;;;18.00;47.40;;;;;;4997751;28;20418;-66
2022/03/02 00:30:00;;;;;;;;;;;18.20;47.20;;;;;;5028138;28;19929;-66
2022/03/02 00:32:25;;;;;;;;;;;18.20;47.30;;;;;;5013469;28;20008;-61
2022/03/02 00:34:50;;;;;;;;;;;18.10;47.20;;;;;;5026931;28;19914;-67
2022/03/02 00:37:16;;;;;;;;;;;18.00;47.30;;;;;;5015409;28;19932;-67
2022/03/02 00:39:42;;;;;;;;;;;18.10;47.30;;;;;;5026782;28;19913;-67
2022/03/02 00:42:07;;;;;;;;;;;18.00;47.40;;;;;;5013000;28;19917;-67
2022/03/02 00:44:33;;;;;;;;;;;18.00;47.20;;;;;;5026481;28;19913;-64
2022/03/02 00:46:59;;;;;;;;;;;18.10;47.20;;;;;;5028147;28;19913;-66
2022/03/02 00:49:26;;;;;;;;;;;18.10;47.00;;;;;;5027290;28;20007;-66
2022/03/02 00:51:53;;;;;;;;;;;18.00;47.30;;;;;;5029692;28;20384;-66
2022/03/02 00:54:18;;;;;;;;;;;17.90;47.40;;;;;;5025259;28;19920;-66
2022/03/02 00:56:44;;;;;;;;;;;18.00;47.20;;;;;;5030364;28;20319;-66
2022/03/02 00:59:09;;;;;;;;;;;17.80;47.40;;;;;;5027583;28;19964;-66
2022/03/02 01:01:35;;;;;;;;;;;18.00;47.30;;;;;;5012772;28;19913;-67
2022/03/02 01:04:00;;;;;;;;;;;18.00;47.20;;;;;;5026928;28;19917;-66
2022/03/02 01:06:25;;;;;;;;;;;18.00;47.20;;;;;;5012322;28;20245;-66
2022/03/02 01:08:51;;;;;;;;;;;17.90;47.30;;;;;;5015321;28;19931;-67
2022/03/02 01:11:16;;;;;;;;;;;18.00;47.10;;;;;;5028136;28;19910;-66
2022/03/02 01:13:42;;;;;;;;;;;17.90;47.20;;;;;;5031452;28;19943;-66
2022/03/02 01:16:07;;;;;;;;;;;17.90;47.30;;;;;;5008893;28;20299;-66
2022/03/02 01:18:33;;;;;;;;;;;17.80;47.30;;;;;;5012151;28;19920;-66
2022/03/02 01:20:59;;;;;;;;;;;17.90;47.30;;;;;;5026549;28;19917;-66
2022/03/02 01:23:25;;;;;;;;;;;17.90;47.30;;;;;;5030289;28;19921;-66
2022/03/02 01:25:50;;;;;;;;;;;17.90;47.20;;;;;;5010385;28;20076;-67
2022/03/02 01:28:16;;;;;;;;;;;17.80;47.40;;;;;;5011447;28;19913;-67
2022/03/02 01:30:41;;;;;;;;;;;17.90;47.30;;;;;;5007304;28;20035;-66
2022/03/02 01:33:07;;;;;;;;;;;17.90;47.10;;;;;;5029928;28;20477;-67
2022/03/02 01:35:32;;;;;;;;;;;17.80;47.10;;;;;;5024273;28;19917;-67
2022/03/02 01:37:57;;;;;;;;;;;17.80;47.40;;;;;;5011773;28;19921;-66
2022/03/02 01:40:23;;;;;;;;;;;17.80;47.10;;;;;;5007707;28;19999;-66
2022/03/02 01:42:48;;;;;;;;;;;17.90;47.00;;;;;;5011464;28;20451;-66
2022/03/02 01:45:14;;;;;;;;;;;17.70;47.10;;;;;;5025858;28;19914;-67
2022/03/02 01:47:39;;;;;;;;;;;17.80;47.20;;;;;;5028717;28;19914;-67
2022/03/02 01:50:06;;;;;;;;;;;17.70;47.20;;;;;;5026061;28;19913;-65
2022/03/02 01:52:31;;;;;;;;;;;17.80;47.20;;;;;;5029474;28;19913;-66
2022/03/02 01:54:57;;;;;;;;;;;17.80;47.00;;;;;;5023173;28;19913;-66
2022/03/02 01:57:22;;;;;;;;;;;17.80;47.00;;;;;;5011486;28;19913;-67
2022/03/02 01:59:48;;;;;;;;;;;17.80;46.90;;;;;;5025370;28;19913;-66
2022/03/02 02:02:13;;;;;;;;;;;17.90;47.00;;;;;;5029584;28;19919;-66
2022/03/02 02:04:39;;;;;;;;;;;17.80;46.90;;;;;;5024112;28;19928;-66
2022/03/02 02:07:04;;;;;;;;;;;17.60;47.20;;;;;;5028493;28;19978;-66
2022/03/02 02:09:30;;;;;;;;;;;17.60;47.20;;;;;;5026084;28;19921;-66
2022/03/02 02:11:55;;;;;;;;;;;17.80;47.10;;;;;;5029254;28;20380;-67
2022/03/02 02:14:21;;;;;;;;;;;17.80;46.90;;;;;;5024264;28;19914;-66
2022/03/02 02:16:46;;;;;;;;;;;17.90;46.80;;;;;;5012277;28;19913;-67
2022/03/02 02:19:11;;;;;;;;;;;17.80;46.80;;;;;;5007755;28;19917;-66
2022/03/02 02:21:37;;;;;;;;;;;17.90;46.80;;;;;;5028466;28;19964;-62
2022/03/02 02:24:03;;;;;;;;;;;17.80;46.70;;;;;;5007520;28;19921;-66
2022/03/02 02:26:28;;;;;;;;;;;17.80;46.80;;;;;;5011454;28;19937;-64
2022/03/02 02:28:53;;;;;;;;;;;17.80;46.80;;;;;;5027995;28;19917;-66
2022/03/02 02:31:19;;;;;;;;;;;17.80;46.80;;;;;;5010696;28;19921;-65
2022/03/02 02:33:44;;;;;;;;;;;17.80;46.90;;;;;;5012481;28;19920;-65
2022/03/02 02:36:10;;;;;;;;;;;17.80;46.70;;;;;;5024395;28;19999;-66
2022/03/02 02:38:36;;;;;;;;;;;17.90;46.70;;;;;;5027837;28;19968;-66
2022/03/02 02:41:01;;;;;;;;;;;17.70;46.80;;;;;;5027236;28;19917;-66
2022/03/02 02:43:27;;;;;;;;;;;17.70;46.90;;;;;;5011856;28;20153;-62
2022/03/02 02:45:53;;;;;;;;;;;17.70;46.80;;;;;;5004260;28;19921;-66
2022/03/02 02:48:18;;;;;;;;;;;17.60;47.00;;;;;;5010715;28;19913;-67
2022/03/02 02:50:43;;;;;;;;;;;17.50;47.60;;;;;;5021054;28;19970;-66
2022/03/02 02:53:09;;;;;;;;;;;17.60;47.70;;;;;;5012024;28;19917;-65
2022/03/02 02:55:35;;;;;;;;;;;17.80;47.30;;;;;;5003115;28;19913;-66
2022/03/02 02:58:00;;;;;;;;;;;17.90;47.10;;;;;;5011226;28;20360;-66
2022/03/02 03:00:27;;;;;;;;;;;18.10;46.80;;;;;;5011885;28;19920;-67
2022/03/02 03:02:52;;;;;;;;;;;18.50;46.30;;;;;;5001554;28;20057;-65
2022/03/02 03:05:19;;;;;;;;;;;18.80;45.40;;;;;;5003362;28;19945;-66
2022/03/02 03:07:44;;;;;;;;;;;18.90;45.30;;;;;;5030084;28;20299;-65
2022/03/02 03:10:10;;;;;;;;;;;18.90;46.00;;;;;;4994561;28;19917;-63
2022/03/02 03:12:36;;;;;;;;;;;19.10;44.80;;;;;;5030127;28;20425;-66
2022/03/02 03:15:02;;;;;;;;;;;19.10;44.90;;;;;;5026872;28;19920;-65
2022/03/02 03:17:27;;;;;;;;;;;19.10;44.90;;;;;;5029907;28;20451;-65
2022/03/02 03:19:53;;;;;;;;;;;19.20;44.70;;;;;;5028036;28;19913;-65
2022/03/02 03:22:18;;;;;;;;;;;19.30;44.40;;;;;;5030293;28;20377;-65
2022/03/02 03:24:44;;;;;;;;;;;19.40;44.40;;;;;;5029589;28;19914;-65
2022/03/02 03:27:09;;;;;;;;;;;19.30;44.30;;;;;;5013684;28;19924;-62
2022/03/02 03:29:35;;;;;;;;;;;19.30;44.40;;;;;;5027571;28;19913;-66
2022/03/02 03:32:00;;;;;;;;;;;19.30;44.50;;;;;;5011450;28;20299;-64
2022/03/02 03:34:25;;;;;;;;;;;19.40;44.30;;;;;;5028241;28;19913;-66
2022/03/02 03:36:52;;;;;;;;;;;19.30;44.30;;;;;;5031618;28;19920;-66
2022/03/02 03:39:18;;;;;;;;;;;19.20;44.80;;;;;;5029238;28;19920;-65
2022/03/02 03:41:43;;;;;;;;;;;19.10;44.80;;;;;;5029951;28;19917;-65
2022/03/02 03:44:08;;;;;;;;;;;19.00;44.90;;;;;;5029644;28;19917;-67
2022/03/02 03:46:34;;;;;;;;;;;19.00;45.60;;;;;;5030615;28;19913;-66
2022/03/02 03:48:59;;;;;;;;;;;18.90;45.00;;;;;;5010004;28;19920;-65
2022/03/02 03:51:25;;;;;;;;;;;18.90;45.20;;;;;;5031750;28;19983;-62
2022/03/02 03:53:51;;;;;;;;;;;18.80;45.20;;;;;;5032789;28;19913;-61
2022/03/02 03:56:16;;;;;;;;;;;18.80;45.20;;;;;;5029145;28;19913;-63
2022/03/02 03:58:42;;;;;;;;;;;18.70;45.30;;;;;;5032560;28;19936;-63
2022/03/02 04:01:07;;;;;;;;;;;18.80;45.30;;;;;;5031328;28;20212;-65
2022/03/02 04:03:34;;;;;;;;;;;18.70;45.40;;;;;;5018234;28;19919;-67
2022/03/02 04:05:59;;;;;;;;;;;18.70;45.30;;;;;;5011009;28;19928;-63
2022/03/02 04:08:25;;;;;;;;;;;18.70;45.50;;;;;;5017173;28;19921;-65
2022/03/02 04:10:50;;;;;;;;;;;18.60;45.50;;;;;;5028425;28;19913;-54
2022/03/02 04:13:16;;;;;;;;;;;18.60;45.50;;;;;;5032292;28;19913;-64
2022/03/02 04:15:41;;;;;;;;;;;18.60;45.50;;;;;;5033625;28;19913;-65
2022/03/02 04:18:07;;;;;;;;;;;18.50;45.60;;;;;;5035880;28;19923;-65
2022/03/02 04:20:35;;;;;;;;;;;18.50;45.70;;;;;;5033867;28;19913;-65
2022/03/02 04:23:01;;;;;;;;;;;18.50;45.60;;;;;;5019497;28;19933;-65
2022/03/02 04:25:26;;;;;;;;;;;18.40;45.70;;;;;;5014555;28;19913;-66
2022/03/02 04:27:52;;;;;;;;;;;18.40;45.70;;;;;;5021652;28;20004;-66
2022/03/02 04:30:17;;;;;;;;;;;18.40;45.90;;;;;;5034615;28;19931;-67
2022/03/02 04:32:42;;;;;;;;;;;18.30;45.90;;;;;;5037042;28;19921;-68
2022/03/02 04:35:08;;;;;;;;;;;18.20;46.00;;;;;;5032478;28;19913;-66
2022/03/02 04:37:34;;;;;;;;;;;18.30;46.10;;;;;;5000282;28;20292;-65
2022/03/02 04:39:59;;;;;;;;;;;18.20;46.00;;;;;;5028677;28;19921;-66
2022/03/02 04:42:24;;;;;;;;;;;18.20;46.10;;;;;;5031710;28;20283;-66
2022/03/02 04:44:50;;;;;;;;;;;18.30;46.00;;;;;;5029837;28;19920;-65
2022/03/02 04:47:15;;;;;;;;;;;18.20;45.90;;;;;;5030040;28;19921;-61
2022/03/02 04:49:41;;;;;;;;;;;18.20;46.10;;;;;;5010672;28;19913;-66
2022/03/02 04:52:06;;;;;;;;;;;18.20;46.20;;;;;;5032636;28;19913;-64
2022/03/02 04:57:16;;;;;;;;;;;18.10;46.10;;;;;;5015038;28;19971;-62
2022/03/02 04:59:41;;;;;;;;;;;18.10;46.10;;;;;;5030941;28;19921;-66
2022/03/02 05:02:07;;;;;;;;;;;18.10;46.10;;;;;;5031197;28;19928;-66
2022/03/02 05:04:32;;;;;;;;;;;18.00;46.10;;;;;;5013358;28;19924;-66
2022/03/02 05:06:58;;;;;;;;;;;18.00;46.10;;;;;;5030518;28;19948;-66
2022/03/02 05:09:23;;;;;;;;;;;18.00;46.10;;;;;;5030033;28;19917;-67
2022/03/02 05:11:49;;;;;;;;;;;18.00;46.20;;;;;;5014291;28;19917;-66
2022/03/02 05:14:14;;;;;;;;;;;18.00;46.20;;;;;;5031020;28;19925;-66
2022/03/02 05:16:39;;;;;;;;;;;18.00;46.20;;;;;;5030944;28;20314;-66
2022/03/02 05:19:05;;;;;;;;;;;18.00;46.20;;;;;;5031089;28;19939;-65
2022/03/02 05:21:30;;;;;;;;;;;18.00;46.30;;;;;;5028265;28;19913;-66
2022/03/02 05:23:56;;;;;;;;;;;18.00;46.10;;;;;;5012191;28;19940;-64
2022/03/02 05:26:21;;;;;;;;;;;18.00;46.20;;;;;;5027602;28;19913;-64
2022/03/02 05:28:47;;;;;;;;;;;18.00;46.20;;;;;;5026794;28;19924;-63
2022/03/02 05:31:12;;;;;;;;;;;18.00;47.00;;;;;;5027028;28;19947;-63
2022/03/02 05:33:38;;;;;;;;;;;18.00;46.40;;;;;;5021624;28;19913;-61
2022/03/02 05:36:03;;;;;;;;;;;18.00;47.30;;;;;;5009498;28;19913;-63
2022/03/02 05:38:28;;;;;;;;;;;18.00;46.80;;;;;;5025056;28;20490;-63
2022/03/02 05:40:54;;;;;;;;;;;18.10;47.50;;;;;;5026445;28;20381;-65
2022/03/02 05:43:19;;;;;;;;;;;18.20;46.70;;;;;;5007967;28;19928;-63
2022/03/02 05:45:45;;;;;;;;;;;18.30;46.60;;;;;;5026840;28;19967;-60
2022/03/02 05:48:10;;;;;;;;;;;18.20;46.60;;;;;;5008078;28;19917;-64
2022/03/02 05:50:36;;;;;;;;;;;18.30;46.70;;;;;;5025510;28;20456;-64
2022/03/02 05:53:01;;;;;;;;;;;18.30;46.70;;;;;;5007828;28;19963;-64
2022/03/02 05:55:27;;;;;;;;;;;18.30;46.60;;;;;;5007318;28;19913;-64
2022/03/02 05:57:52;;;;;;;;;;;18.30;46.60;;;;;;5007420;28;19913;-64
2022/03/02 06:00:18;;;;;;;;;;;18.20;46.80;;;;;;5024816;28;20368;-63
2022/03/02 06:02:43;;;;;;;;;;;18.20;46.80;;;;;;5026502;28;19917;-64
2022/03/02 06:05:11;;;;;;;;;;;18.20;46.80;;;;;;5025940;28;19923;-63
2022/03/02 06:07:37;;;;;;;;;;;18.10;46.80;;;;;;5026009;28;19921;-63
2022/03/02 06:10:03;;;;;;;;;;;18.20;46.90;;;;;;5026134;28;19917;-64
2022/03/02 06:12:28;;;;;;;;;;;18.10;46.90;;;;;;5010386;28;19940;-64
2022/03/02 06:14:54;;;;;;;;;;;18.10;46.90;;;;;;5026696;28;20545;-64
2022/03/02 06:17:19;;;;;;;;;;;18.10;46.80;;;;;;5009931;28;19921;-63
2022/03/02 06:19:45;;;;;;;;;;;18.10;46.80;;;;;;5007371;28;20459;-67
2022/03/02 06:22:10;;;;;;;;;;;18.10;46.80;;;;;;5024935;28;20004;-65
2022/03/02 06:24:36;;;;;;;;;;;18.20;47.00;;;;;;5023605;28;20000;-67
2022/03/02 06:27:01;;;;;;;;;;;18.30;47.30;;;;;;5021999;28;19920;-66
2022/03/02 06:29:27;;;;;;;;;;;18.30;47.50;;;;;;5022943;28;19913;-66
2022/03/02 06:31:52;;;;;;;;;;;18.20;47.80;;;;;;5024576;28;19917;-66
2022/03/02 06:34:18;;;;;;;;;;;18.00;48.30;;;;;;5008366;28;19920;-66
2022/03/02 06:36:45;;;;;;;;;;;17.80;49.00;;;;;;5007493;28;19975;-66
2022/03/02 06:39:10;;;;;;;;;;;18.00;48.50;;;;;;5025275;28;19924;-66
2022/03/02 06:41:46;;;;;;;;;;;18.10;48.20;;;;;;5028701;28;20303;-66
2022/03/02 06:44:15;;;;;;;;;;;18.00;48.30;;;;;;5026712;28;19951;-65
2022/03/02 06:46:42;;;;;;;;;;;17.90;48.50;;;;;;5027658;28;19917;-66
2022/03/02 06:49:16;;;;;;;;;;;17.90;48.60;;;;;;5027516;28;20131;-65
2022/03/02 06:51:41;;;;;;;;;;;17.80;48.30;;;;;;5010861;28;19912;-65
2022/03/02 06:54:07;;;;;;;;;;;17.80;48.20;;;;;;5010375;28;19917;-66
2022/03/02 06:56:35;;;;;;;;;;;17.80;48.00;;;;;;5028038;28;19913;-66
2022/03/02 06:59:01;;;;;;;;;;;17.80;47.90;;;;;;5027507;28;19917;-65
2022/03/02 07:01:27;;;;;;;;;;;17.80;47.80;;;;;;5010404;28;19917;-65
2022/03/02 07:03:53;;;;;;;;;;;17.70;47.90;;;;;;5027404;28;19917;-65
2022/03/02 07:06:19;;;;;;;;;;;17.70;47.80;;;;;;5025343;28;19929;-66
2022/03/02 07:08:45;;;;;;;;;;;17.70;47.90;;;;;;5028689;28;19925;-65
2022/03/02 07:11:10;;;;;;;;;;;17.80;47.70;;;;;;5028403;28;19917;-66
2022/03/02 07:13:36;;;;;;;;;;;17.70;47.70;;;;;;5029826;28;19913;-65
2022/03/02 07:16:01;;;;;;;;;;;17.60;47.70;;;;;;5025706;28;19913;-65
2022/03/02 07:18:27;;;;;;;;;;;17.50;47.90;;;;;;5022180;28;19921;-66
2022/03/02 07:20:53;;;;;;;;;;;17.50;48.10;;;;;;5005513;28;19913;-66
2022/03/02 07:23:19;;;;;;;;;;;17.50;48.00;;;;;;5005186;28;19963;-66
2022/03/02 07:25:45;;;;;;;;;;;17.40;48.20;;;;;;5006070;28;19913;-66
2022/03/02 07:28:10;;;;;;;;;;;17.40;48.30;;;;;;5004616;28;20375;-63
2022/03/02 07:30:36;;;;;;;;;;;17.40;48.50;;;;;;5024904;28;19918;-64
2022/03/02 07:33:02;;;;;;;;;;;17.60;48.10;;;;;;5006426;28;19917;-64
2022/03/02 07:35:29;;;;;;;;;;;17.70;48.00;;;;;;5024959;28;19913;-64
2022/03/02 07:37:55;;;;;;;;;;;17.70;48.10;;;;;;5026431;28;19936;-64
2022/03/02 07:40:20;;;;;;;;;;;17.70;47.80;;;;;;5024021;28;19917;-65
2022/03/02 07:42:46;;;;;;;;;;;17.80;47.70;;;;;;5006324;28;19921;-64
2022/03/02 07:45:11;;;;;;;;;;;17.90;47.20;;;;;;5006335;28;19928;-64
2022/03/02 07:47:36;;;;;;;;;;;18.00;47.00;;;;;;5025072;28;20028;-64
2022/03/02 07:50:02;;;;;;;;;;;18.00;46.80;;;;;;5025768;28;19913;-64
2022/03/02 07:52:28;;;;;;;;;;;18.10;46.70;;;;;;5028613;28;19916;-61
2022/03/02 07:54:54;;;;;;;;;;;18.10;46.50;;;;;;5027319;28;20449;-63
2022/03/02 07:57:20;;;;;;;;;;;18.30;46.30;;;;;;5028225;28;19941;-65
2022/03/02 07:59:45;;;;;;;;;;;18.30;46.30;;;;;;5011388;28;20390;-65
2022/03/02 08:02:11;;;;;;;;;;;18.30;46.10;;;;;;5029186;28;19913;-64
2022/03/02 08:04:37;;;;;;;;;;;18.40;46.00;;;;;;5029500;28;19917;-64
2022/03/02 08:07:03;;;;;;;;;;;18.40;46.00;;;;;;4995958;28;19924;-64
2022/03/02 08:09:31;;;;;;;;;;;18.40;46.10;;;;;;5029552;28;20150;-64
2022/03/02 08:11:57;;;;;;;;;;;18.40;46.00;;;;;;5027766;28;19996;-65
2022/03/02 08:14:24;;;;;;;;;;;18.50;46.00;;;;;;5010907;28;19925;-64
2022/03/02 08:16:50;;;;;;;;;;;18.50;46.00;;;;;;5010548;28;19927;-63
2022/03/02 08:19:15;;;;;;;;;;;18.50;46.00;;;;;;5030012;28;20007;-63
2022/03/02 08:21:41;;;;;;;;;;;18.60;45.90;;;;;;5029032;28;19917;-64
2022/03/02 08:24:08;;;;;;;;;;;18.60;46.10;;;;;;5010918;28;19921;-64
2022/03/02 08:26:34;;;;;;;;;;;18.70;45.70;;;;;;5028244;28;19917;-64
2022/03/02 08:29:01;;;;;;;;;;;18.80;45.60;;;;;;5029236;28;19913;-65
2022/03/02 08:31:27;;;;;;;;;;;18.80;45.60;;;;;;5029098;28;19916;-65
2022/03/02 08:33:52;;;;;;;;;;;18.80;45.60;;;;;;5027675;28;19921;-64
2022/03/02 08:36:21;;;;;;;;;;;18.90;45.70;;;;;;5027887;28;19913;-65
2022/03/02 08:38:48;;;;;;;;;;;18.90;45.70;;;;;;5010089;28;19921;-64
2022/03/02 08:41:14;;;;;;;;;;;19.00;45.60;;;;;;5027429;28;19913;-64
2022/03/02 08:43:39;;;;;;;;;;;18.90;45.40;;;;;;5027898;28;19924;-64
2022/03/02 08:46:05;;;;;;;;;;;18.90;45.70;;;;;;5010106;28;20351;-63
2022/03/02 08:48:30;;;;;;;;;;;18.90;45.60;;;;;;5027499;28;19924;-64
2022/03/02 08:50:56;;;;;;;;;;;18.90;45.50;;;;;;5028433;28;19921;-63
2022/03/02 08:53:22;;;;;;;;;;;18.90;45.60;;;;;;5027816;28;19913;-63
2022/03/02 08:55:47;;;;;;;;;;;18.90;45.60;;;;;;5009114;28;20380;-64
2022/03/02 08:58:13;;;;;;;;;;;19.00;45.50;;;;;;5026269;28;19913;-64
2022/03/02 09:00:38;;;;;;;;;;;19.00;45.50;;;;;;5008149;28;20338;-64
2022/03/02 09:03:04;;;;;;;;;;;19.00;45.40;;;;;;5027181;28;19956;-64
2022/03/02 09:05:29;;;;;;;;;;;19.00;45.40;;;;;;5008695;28;19920;-63
2022/03/02 09:07:55;;;;;;;;;;;18.90;45.50;;;;;;5026376;28;20001;-63
2022/03/02 09:10:20;;;;;;;;;;;19.00;45.60;;;;;;5025316;28;19940;-63
2022/03/02 09:12:46;;;;;;;;;;;19.10;45.30;;;;;;5025895;28;20472;-63
2022/03/02 09:15:11;;;;;;;;;;;19.00;45.30;;;;;;5025964;28;19949;-63
2022/03/02 09:17:37;;;;;;;;;;;19.00;45.40;;;;;;5025449;28;19917;-63
2022/03/02 09:20:02;;;;;;;;;;;19.00;45.40;;;;;;5008077;28;19913;-63
2022/03/02 09:22:28;;;;;;;;;;;19.00;45.30;;;;;;5025036;28;19914;-64
2022/03/02 09:24:53;;;;;;;;;;;19.00;45.10;;;;;;5026141;28;19913;-65
2022/03/02 09:27:20;;;;;;;;;;;19.10;45.30;;;;;;5007854;28;19914;-66
2022/03/02 09:29:46;;;;;;;;;;;19.10;45.20;;;;;;5025536;28;19913;-63
2022/03/02 09:32:12;;;;;;;;;;;19.10;45.30;;;;;;5027323;28;20660;-63
2022/03/02 09:34:39;;;;;;;;;;;19.10;45.30;;;;;;5026520;28;20515;-63
2022/03/02 09:37:05;;;;;;;;;;;19.10;45.20;;;;;;5026025;28;19949;-64
2022/03/02 09:39:30;;;;;;;;;;;19.10;45.10;;;;;;5025467;28;19925;-63
2022/03/02 09:41:58;;;;;;;;;;;19.10;45.00;;;;;;5008209;28;19991;-64
2022/03/02 09:44:25;;;;;;;;;;;19.20;45.10;;;;;;5009012;28;20300;-64
2022/03/02 09:46:51;;;;;;;;;;;19.20;45.00;;;;;;5009652;28;20382;-64
2022/03/02 09:49:19;;;;;;;;;;;19.10;45.00;;;;;;5028357;28;19913;-64
2022/03/02 09:51:45;;;;;;;;;;;19.20;44.80;;;;;;5029833;28;19948;-64
2022/03/02 09:54:10;;;;;;;;;;;19.20;44.80;;;;;;5011896;28;20299;-65
2022/03/02 09:56:36;;;;;;;;;;;19.20;44.90;;;;;;5030122;28;19914;-64
2022/03/02 09:59:03;;;;;;;;;;;19.20;45.00;;;;;;5008744;28;19913;-65
2022/03/02 10:01:28;;;;;;;;;;;19.10;45.10;;;;;;5025286;28;20025;-64
2022/03/02 10:03:54;;;;;;;;;;;19.00;45.80;;;;;;5009320;28;20055;-65
2022/03/02 10:06:19;;;;;;;;;;;18.90;45.40;;;;;;5028026;28;20028;-64
2022/03/02 10:08:46;;;;;;;;;;;18.90;45.50;;;;;;5026376;28;19937;-64
2022/03/02 10:11:11;;;;;;;;;;;18.80;45.70;;;;;;5026331;28;20011;-63
2022/03/02 10:13:37;;;;;;;;;;;18.70;46.00;;;;;;5009284;28;19937;-64
2022/03/02 10:16:03;;;;;;;;;;;18.70;46.10;;;;;;5026708;28;19921;-63
2022/03/02 10:18:30;;;;;;;;;;;18.60;46.20;;;;;;5008131;28;19936;-63
2022/03/02 10:20:58;;;;;;;;;;;18.60;46.20;;;;;;5005369;28;20670;-64
2022/03/02 10:23:34;;;;;;;;;;;18.70;46.10;;;;;;5007780;28;19921;-63
2022/03/02 10:26:03;;;;;;;;;;;18.70;46.00;;;;;;5024058;28;20161;-63
2022/03/02 10:28:32;;;;;;;;;;;18.70;46.00;;;;;;5024081;28;20011;-63
2022/03/02 10:31:16;;;;;;;;;;;18.80;45.90;;;;;;5024525;28;19928;-63
2022/03/02 10:33:46;;;;;;;;;;;18.80;45.80;;;;;;5024252;28;19944;-63
2022/03/02 10:36:11;;;;;;;;;;;18.80;45.80;;;;;;5006530;28;20362;-64
2022/03/02 10:39:00;;;;;;;;;;;18.90;45.60;;;;;;5023650;28;19924;-64
2022/03/02 10:41:27;;;;;;;;;;;19.00;45.50;;;;;;5022330;28;19917;-64
2022/03/02 10:43:56;;;;;;;;;;;19.10;45.30;;;;;;5024319;28;19917;-63
2022/03/02 10:46:22;;;;;;;;;;;19.10;45.30;;;;;;5002192;28;20342;-63
2022/03/02 10:49:07;;;;;;;;;;;19.10;45.40;;;;;;5021231;28;19913;-64
2022/03/02 10:51:33;;;;;;;;;;;19.10;45.20;;;;;;5022320;28;20458;-64
2022/03/02 10:54:00;;;;;;;;;;;19.20;45.30;;;;;;5021484;28;19918;-64
2022/03/02 10:56:26;;;;;;;;;;;19.10;45.40;;;;;;5023345;28;19913;-64
2022/03/02 10:58:51;;;;;;;;;;;19.10;45.60;;;;;;5022989;28;19913;-64
2022/03/02 11:01:17;;;;;;;;;;;19.20;44.90;;;;;;5006152;28;20557;-63
2022/03/02 11:03:42;;;;;;;;;;;19.30;45.00;;;;;;5023925;28;19917;-64
2022/03/02 11:06:08;;;;;;;;;;;19.30;45.00;;;;;;5006643;28;19913;-64
2022/03/02 11:08:34;;;;;;;;;;;19.20;45.30;;;;;;5006556;28;19944;-63
2022/03/02 11:10:59;;;;;;;;;;;19.20;45.20;;;;;;5023167;28;19913;-64
2022/03/02 11:13:25;;;;;;;;;;;19.30;45.10;;;;;;5005326;28;19917;-65
2022/03/02 11:15:51;;;;;;;;;;;19.30;45.00;;;;;;5006412;28;20461;-63
2022/03/02 11:18:17;;;;;;;;;;;19.20;45.20;;;;;;5006105;28;20499;-64
2022/03/02 11:20:52;;;;;;;;;;;19.30;45.10;;;;;;5005662;28;20024;-64
2022/03/02 11:23:22;;;;;;;;;;;19.30;44.80;;;;;;5024517;28;20124;-65
2022/03/02 11:25:49;;;;;;;;;;;19.30;44.70;;;;;;5009545;28;19913;-63
2022/03/02 11:28:18;;;;;;;;;;;19.30;44.60;;;;;;5027847;28;19914;-63
2022/03/02 11:30:47;;;;;;;;;;;19.50;44.60;;;;;;5027737;28;19914;-63
2022/03/02 11:33:13;;;;;;;;;;;19.40;44.60;;;;;;5010151;28;19943;-64
2022/03/02 11:35:38;;;;;;;;;;;19.50;44.80;;;;;;5026671;28;19913;-65
2022/03/02 11:38:04;;;;;;;;;;;19.50;44.50;;;;;;5012221;28;19924;-64
2022/03/02 11:40:40;;;;;;;;;;;19.50;44.70;;;;;;5027671;28;20048;-63
2022/03/02 11:43:18;;;;;;;;;;;19.50;45.00;;;;;;5024277;28;19917;-64
2022/03/02 11:45:43;;;;;;;;;;;19.60;44.90;;;;;;5025593;28;19924;-63
2022/03/02 11:48:10;;;;;;;;;;;19.50;45.00;;;;;;5027709;28;19913;-64
2022/03/02 11:50:35;;;;;;;;;;;19.50;45.20;;;;;;5012341;28;19913;-64
2022/03/02 11:53:01;;;;;;;;;;;19.50;45.30;;;;;;5013041;28;19978;-65
2022/03/02 11:55:27;;;;;;;;;;;19.50;45.20;;;;;;5010769;28;19913;-64
2022/03/02 11:57:53;;;;;;;;;;;19.50;45.30;;;;;;5027663;28;19924;-65
2022/03/02 12:00:19;;;;;;;;;;;19.50;45.90;;;;;;5029475;28;20012;-65
2022/03/02 12:02:48;;;;;;;;;;;19.40;46.20;;;;;;5028776;28;19913;-66
2022/03/02 12:05:14;;;;;;;;;;;19.50;46.60;;;;;;5011422;28;19913;-67
2022/03/02 12:07:43;;;;;;;;;;;19.50;46.90;;;;;;5027829;28;20322;-66
2022/03/02 12:10:22;;;;;;;;;;;19.50;47.00;;;;;;5027422;28;19940;-67
2022/03/02 12:12:47;;;;;;;;;;;19.50;47.00;;;;;;5028746;28;19920;-64
2022/03/02 12:15:13;;;;;;;;;;;19.60;47.20;;;;;;5011513;28;19913;-64
2022/03/02 12:17:38;;;;;;;;;;;19.60;47.00;;;;;;5028941;28;19928;-64
2022/03/02 12:20:05;;;;;;;;;;;19.60;46.90;;;;;;5027919;28;19917;-64
2022/03/02 12:22:35;;;;;;;;;;;19.60;46.80;;;;;;5030697;28;19917;-64
2022/03/02 12:25:00;;;;;;;;;;;19.60;46.60;;;;;;5030006;28;20010;-64
2022/03/02 12:27:25;;;;;;;;;;;19.70;46.60;;;;;;5029138;28;19948;-63
2022/03/02 12:29:52;;;;;;;;;;;19.60;46.50;;;;;;5011682;28;20411;-62
2022/03/02 12:32:19;;;;;;;;;;;19.60;46.50;;;;;;5029071;28;20614;-63
2022/03/02 12:34:48;;;;;;;;;;;19.60;46.40;;;;;;5030177;28;19927;-62
2022/03/02 12:37:13;;;;;;;;;;;19.60;46.30;;;;;;5010743;28;20331;-62
2022/03/02 12:39:40;;;;;;;;;;;19.60;46.20;;;;;;5011480;28;19920;-63
2022/03/02 12:42:08;;;;;;;;;;;19.70;46.20;;;;;;5032182;28;19923;-62
2022/03/02 12:44:35;;;;;;;;;;;19.70;46.10;;;;;;5030061;28;19921;-64
2022/03/02 12:47:03;;;;;;;;;;;19.70;46.10;;;;;;5010393;28;19924;-64
2022/03/02 12:49:28;;;;;;;;;;;19.60;46.00;;;;;;5028898;28;20001;-66
2022/03/02 12:51:54;;;;;;;;;;;19.60;46.00;;;;;;5028574;28;19941;-66
2022/03/02 12:54:20;;;;;;;;;;;19.60;46.70;;;;;;5027551;28;20443;-66
2022/03/02 12:56:45;;;;;;;;;;;19.60;46.50;;;;;;5008945;28;19913;-66
2022/03/02 12:59:11;;;;;;;;;;;19.50;46.80;;;;;;5008633;28;19917;-66
2022/03/02 13:01:36;;;;;;;;;;;19.40;47.10;;;;;;5008426;28;19913;-65
2022/03/02 13:04:02;;;;;;;;;;;19.30;47.20;;;;;;5010058;28;20288;-65
2022/03/02 13:06:31;;;;;;;;;;;19.30;47.40;;;;;;5023744;28;19920;-65
2022/03/02 13:08:58;;;;;;;;;;;19.30;47.60;;;;;;5015738;28;20459;-64
2022/03/02 13:11:24;;;;;;;;;;;19.30;47.70;;;;;;5008501;28;19921;-65
2022/03/02 13:13:49;;;;;;;;;;;19.30;48.00;;;;;;5026682;28;20341;-63
2022/03/02 13:16:19;;;;;;;;;;;19.20;48.20;;;;;;5027689;28;19913;-65
2022/03/02 13:18:44;;;;;;;;;;;19.20;48.50;;;;;;5026200;28;20058;-66
2022/03/02 13:21:14;;;;;;;;;;;19.20;48.70;;;;;;5026191;28;20377;-65
2022/03/02 13:23:39;;;;;;;;;;;19.20;48.90;;;;;;5008534;28;20394;-66
2022/03/02 13:26:04;;;;;;;;;;;19.20;48.90;;;;;;5007884;28;19913;-67
2022/03/02 13:28:30;;;;;;;;;;;19.10;49.00;;;;;;5023856;28;19921;-66
2022/03/02 13:31:16;;;;;;;;;;;19.10;48.90;;;;;;5024713;28;19928;-66
2022/03/02 13:33:57;;;;;;;;;;;19.00;48.80;;;;;;5007241;28;19928;-67
2022/03/02 13:36:32;;;;;;;;;;;19.00;47.20;;;;;;5016291;28;20008;-66
2022/03/02 13:39:04;;;;;;;;;;;19.00;45.70;;;;;;5022565;28;19992;-66
2022/03/02 13:41:40;;;;;;;;;;;18.90;45.60;;;;;;5007427;28;20004;-66
2022/03/02 13:44:24;;;;;;;;;;;18.90;45.60;;;;;;5007186;28;19972;-65
2022/03/02 13:47:08;;;;;;;;;;;18.80;45.80;;;;;;5023613;28;19944;-66
2022/03/02 13:49:54;;;;;;;;;;;18.80;46.00;;;;;;5019830;28;19956;-67
2022/03/02 13:52:21;;;;;;;;;;;18.80;46.70;;;;;;4997987;28;19913;-65
2022/03/02 13:54:46;;;;;;;;;;;18.90;47.60;;;;;;5026184;28;19932;-67
2022/03/02 13:57:18;;;;;;;;;;;18.90;48.40;;;;;;5008239;28;19921;-66
2022/03/02 13:59:43;;;;;;;;;;;18.90;49.50;;;;;;5028006;28;19916;-67
2022/03/02 14:02:09;;;;;;;;;;;19.00;50.20;;;;;;5030103;28;20462;-68
2022/03/02 14:04:34;;;;;;;;;;;19.00;51.10;;;;;;5031386;28;19921;-68
2022/03/02 14:07:04;;;;;;;;;;;19.00;51.40;;;;;;5030425;28;19933;-67
2022/03/02 14:09:29;;;;;;;;;;;19.00;51.90;;;;;;5011675;28;19917;-68
2022/03/02 14:11:56;;;;;;;;;;;19.00;52.20;;;;;;5010966;28;19921;-67
2022/03/02 14:14:28;;;;;;;;;;;19.00;52.20;;;;;;5028755;28;19928;-68